createdAt,value
2022-11-20T00:01:07.549Z,84.58
2022-11-20T00:03:34.127Z,85.14
2022-11-20T00:06:02.156Z,84.65
2022-11-20T00:08:28.602Z,84.90
2022-11-20T00:10:55.085Z,84.73
2022-11-20T00:13:21.541Z,85.17
2022-11-20T00:15:47.993Z,84.95
2022-11-20T00:18:16.645Z,84.60
2022-11-20T00:20:43.000Z,84.94
2022-11-20T00:23:09.370Z,85.29
2022-11-20T00:25:36.495Z,85.05
2022-11-20T00:28:03.024Z,85.31
2022-11-20T00:30:29.408Z,85.39
2022-11-20T00:32:57.974Z,85.53
2022-11-20T00:35:27.020Z,85.16
2022-11-20T00:37:53.522Z,84.92
2022-11-20T00:40:19.957Z,84.50
2022-11-20T00:42:46.817Z,84.94
2022-11-20T00:45:13.343Z,84.77
2022-11-20T00:47:39.799Z,85.29
2022-11-20T00:50:06.522Z,85.37
2022-11-20T00:52:32.964Z,84.80
2022-11-20T00:54:59.320Z,84.62
2022-11-20T00:57:25.725Z,84.79
2022-11-20T00:59:52.171Z,85.32
2022-11-20T01:02:18.669Z,85.22
2022-11-20T01:04:45.376Z,85.03
2022-11-20T01:07:12.178Z,85.74
2022-11-20T01:09:39.042Z,85.84
2022-11-20T01:12:05.790Z,85.48
2022-11-20T01:14:32.226Z,85.66
2022-11-20T01:16:58.735Z,85.55
2022-11-20T01:19:25.493Z,85.62
2022-11-20T01:21:54.881Z,85.92
2022-11-20T01:24:22.864Z,85.58
2022-11-20T01:26:51.337Z,85.42
2022-11-20T01:29:22.082Z,85.43
2022-11-20T01:31:48.891Z,86.02
2022-11-20T01:34:18.402Z,85.62
2022-11-20T01:36:45.604Z,86.00
2022-11-20T01:39:16.032Z,86.17
2022-11-20T01:42:05.708Z,85.87
2022-11-20T01:44:52.251Z,86.60
2022-11-20T01:47:26.461Z,86.33
2022-11-20T01:50:11.027Z,85.94
2022-11-20T01:52:54.832Z,85.94
2022-11-20T01:55:29.638Z,86.06
2022-11-20T01:57:56.448Z,86.01
2022-11-20T02:00:23.022Z,86.06
2022-11-20T02:02:54.948Z,85.65
2022-11-20T02:05:37.905Z,85.76
2022-11-20T02:08:07.055Z,86.25
2022-11-20T02:10:34.594Z,85.92
2022-11-20T02:13:19.807Z,86.56
2022-11-20T02:15:46.974Z,85.96
2022-11-20T02:18:16.508Z,86.30
2022-11-20T02:20:46.293Z,86.23
2022-11-20T02:23:27.953Z,86.28
2022-11-20T02:25:56.157Z,86.37
2022-11-20T02:28:24.244Z,86.07
2022-11-20T02:30:50.748Z,86.47
2022-11-20T02:33:17.266Z,86.04
2022-11-20T02:35:46.031Z,86.31
2022-11-20T02:38:13.812Z,85.91
2022-11-20T02:40:40.313Z,85.75
2022-11-20T02:43:06.902Z,85.97
2022-11-20T02:45:33.492Z,85.72
2022-11-20T02:47:59.945Z,85.95
2022-11-20T02:50:26.435Z,85.60
2022-11-20T02:52:55.992Z,85.94
2022-11-20T02:55:22.460Z,85.88
2022-11-20T02:57:49.001Z,85.98
2022-11-20T03:00:15.615Z,86.08
2022-11-20T03:02:42.064Z,85.92
2022-11-20T03:05:09.755Z,85.47
2022-11-20T03:07:36.390Z,85.37
2022-11-20T03:10:03.238Z,85.87
2022-11-20T03:12:29.633Z,85.73
2022-11-20T03:14:56.065Z,86.06
2022-11-20T03:17:22.809Z,86.06
2022-11-20T03:19:49.326Z,85.49
2022-11-20T03:22:15.961Z,85.65
2022-11-20T03:24:42.446Z,85.76
2022-11-20T03:27:09.096Z,85.92
2022-11-20T03:29:38.524Z,86.02
2022-11-20T03:32:05.153Z,85.79
2022-11-20T03:34:31.657Z,85.50
2022-11-20T03:36:58.318Z,86.08
2022-11-20T03:39:24.873Z,85.65
2022-11-20T03:41:51.515Z,85.93
2022-11-20T03:44:18.098Z,85.82
2022-11-20T03:46:44.621Z,86.10
2022-11-20T03:49:11.118Z,85.60
2022-11-20T03:51:37.598Z,85.94
2022-11-20T03:54:07.527Z,85.49
2022-11-20T03:56:37.242Z,86.23
2022-11-20T03:59:04.371Z,85.89
2022-11-20T04:01:33.726Z,85.59
2022-11-20T04:04:00.483Z,86.09
2022-11-20T04:06:30.295Z,85.69
2022-11-20T04:08:58.337Z,85.45
2022-11-20T04:11:26.957Z,85.67
2022-11-20T04:13:55.806Z,85.77
2022-11-20T04:16:23.640Z,85.74
2022-11-20T04:18:55.051Z,85.60
2022-11-20T04:21:21.795Z,85.70
2022-11-20T04:23:48.356Z,86.31
2022-11-20T04:26:15.051Z,86.26
2022-11-20T04:28:41.690Z,86.10
2022-11-20T04:31:11.616Z,85.94
2022-11-20T04:33:38.560Z,86.29
2022-11-20T04:36:08.268Z,86.44
2022-11-20T04:38:35.038Z,85.57
2022-11-20T04:41:03.848Z,86.11
2022-11-20T04:43:31.432Z,85.66
2022-11-20T04:45:59.361Z,86.33
2022-11-20T04:48:27.573Z,85.83
2022-11-20T04:50:54.672Z,86.10
2022-11-20T04:53:22.227Z,86.02
2022-11-20T04:55:48.705Z,85.95
2022-11-20T04:58:16.084Z,85.59
2022-11-20T05:00:42.622Z,85.99
2022-11-20T05:03:09.131Z,85.67
2022-11-20T05:05:36.020Z,85.59
2022-11-20T05:08:02.917Z,85.79
2022-11-20T05:10:30.284Z,85.55
2022-11-20T05:12:58.200Z,85.99
2022-11-20T05:15:25.043Z,85.99
2022-11-20T05:17:53.205Z,85.83
2022-11-20T05:20:20.354Z,85.95
2022-11-20T05:22:46.864Z,86.18
2022-11-20T05:25:13.749Z,85.53
2022-11-20T05:27:40.325Z,85.83
2022-11-20T05:30:07.812Z,85.80
2022-11-20T05:32:34.301Z,85.57
2022-11-20T05:35:00.867Z,85.81
2022-11-20T05:37:27.462Z,85.56
2022-11-20T05:39:53.880Z,85.74
2022-11-20T05:42:32.453Z,85.97
2022-11-20T05:45:00.260Z,86.68
2022-11-20T05:47:34.417Z,86.09
2022-11-20T05:50:01.493Z,85.89
2022-11-20T05:52:31.479Z,86.29
2022-11-20T05:54:58.162Z,86.23
2022-11-20T05:57:24.721Z,86.38
2022-11-20T05:59:51.202Z,85.97
2022-11-20T06:02:17.684Z,85.94
2022-11-20T06:04:44.252Z,85.84
2022-11-20T06:07:11.279Z,86.26
2022-11-20T06:09:37.824Z,85.71
2022-11-20T06:12:04.549Z,85.36
2022-11-20T06:14:30.961Z,85.81
2022-11-20T06:16:57.669Z,85.56
2022-11-20T06:19:24.159Z,85.70
2022-11-20T06:21:50.829Z,85.52
2022-11-20T06:24:17.954Z,86.03
2022-11-20T06:26:44.844Z,85.80
2022-11-20T06:29:14.605Z,85.61
2022-11-20T06:31:43.915Z,86.13
2022-11-20T06:34:10.433Z,86.13
2022-11-20T06:36:37.176Z,85.82
2022-11-20T06:39:03.978Z,85.95
2022-11-20T06:41:30.547Z,86.03
2022-11-20T06:43:56.975Z,85.96
2022-11-20T06:46:23.716Z,86.13
2022-11-20T06:48:51.337Z,86.29
2022-11-20T06:51:18.226Z,86.33
2022-11-20T06:53:44.710Z,86.12
2022-11-20T06:56:11.157Z,85.93
2022-11-20T06:58:37.962Z,86.72
2022-11-20T07:01:11.540Z,86.34
2022-11-20T07:03:38.824Z,86.39
2022-11-20T07:06:05.872Z,86.62
2022-11-20T07:08:33.005Z,86.12
2022-11-20T07:11:05.844Z,85.83
2022-11-20T07:13:33.100Z,85.67
2022-11-20T07:16:06.555Z,85.52
2022-11-20T07:18:33.174Z,85.90
2022-11-20T07:21:03.912Z,85.90
2022-11-20T07:23:30.402Z,86.01
2022-11-20T07:25:56.856Z,86.50
2022-11-20T07:28:23.508Z,86.24
2022-11-20T07:30:54.229Z,86.46
2022-11-20T07:33:21.013Z,86.53
2022-11-20T07:35:47.556Z,86.21
2022-11-20T07:38:14.151Z,86.62
2022-11-20T07:40:40.581Z,86.57
2022-11-20T07:43:07.345Z,86.40
2022-11-20T07:45:33.796Z,86.38
2022-11-20T07:48:00.325Z,86.68
2022-11-20T07:50:26.871Z,86.63
2022-11-20T07:52:53.567Z,86.63
2022-11-20T07:55:19.939Z,86.75
2022-11-20T07:57:46.474Z,86.58
2022-11-20T08:00:13.741Z,87.25
2022-11-20T08:02:41.524Z,86.88
2022-11-20T08:05:12.215Z,86.71
2022-11-20T08:07:43.030Z,86.47
2022-11-20T08:10:12.040Z,86.74
2022-11-20T08:13:07.133Z,86.91
2022-11-20T08:15:34.009Z,86.46
2022-11-20T08:18:30.023Z,86.73
2022-11-20T08:20:54.646Z,87.01
2022-11-20T08:23:21.083Z,86.61
2022-11-20T08:25:50.996Z,86.89
2022-11-20T08:28:21.221Z,86.82
2022-11-20T08:30:48.485Z,86.70
2022-11-20T08:33:24.705Z,87.23
2022-11-20T08:35:51.070Z,86.97
2022-11-20T08:38:17.859Z,86.62
2022-11-20T08:41:07.087Z,87.08
2022-11-20T08:43:33.550Z,87.29
2022-11-20T08:46:00.005Z,87.10
2022-11-20T08:48:26.465Z,87.66
2022-11-20T08:50:52.855Z,87.83
2022-11-20T08:53:19.255Z,87.23
2022-11-20T08:55:45.656Z,87.81
2022-11-20T08:58:12.275Z,88.00
2022-11-20T09:00:38.711Z,87.48
2022-11-20T09:03:05.394Z,87.64
2022-11-20T09:05:31.891Z,87.64
2022-11-20T09:07:59.243Z,88.07
2022-11-20T09:10:28.526Z,88.13
2022-11-20T09:12:58.684Z,88.00
2022-11-20T09:15:26.406Z,88.17
2022-11-20T09:17:53.471Z,88.14
2022-11-20T09:20:20.682Z,87.89
2022-11-20T09:22:47.372Z,88.06
2022-11-20T09:25:13.772Z,87.79
2022-11-20T09:27:42.298Z,88.06
2022-11-20T09:30:09.169Z,88.22
2022-11-20T09:32:35.602Z,87.79
2022-11-20T09:35:02.202Z,88.05
2022-11-20T09:37:29.427Z,88.13
2022-11-20T09:39:55.784Z,88.00
2022-11-20T09:42:45.627Z,88.00
2022-11-20T09:45:24.159Z,87.84
2022-11-20T09:47:56.486Z,88.00
2022-11-20T09:50:44.806Z,88.06
2022-11-20T09:53:20.528Z,87.65
2022-11-20T09:55:47.510Z,87.57
2022-11-20T09:58:26.540Z,88.02
2022-11-20T10:00:57.230Z,88.23
2022-11-20T10:03:38.705Z,88.03
2022-11-20T10:06:13.144Z,88.11
2022-11-20T10:08:50.089Z,87.94
2022-11-20T10:11:42.696Z,88.37
2022-11-20T10:14:41.524Z,87.73
2022-11-20T10:17:33.095Z,87.98
2022-11-20T10:20:17.184Z,87.50
2022-11-20T10:22:55.373Z,87.71
2022-11-20T10:25:34.795Z,87.54
2022-11-20T10:28:38.799Z,87.33
2022-11-20T10:31:12.020Z,87.09
2022-11-20T10:34:10.535Z,87.23
2022-11-20T10:36:37.732Z,87.15
2022-11-20T10:39:29.938Z,87.57
2022-11-20T10:41:57.566Z,87.36
2022-11-20T10:44:47.462Z,87.17
2022-11-20T10:47:16.910Z,87.25
2022-11-20T10:49:46.378Z,87.40
2022-11-20T10:52:50.286Z,87.09
2022-11-20T10:55:31.989Z,87.07
2022-11-20T10:58:08.757Z,87.32
2022-11-20T11:00:35.434Z,87.10
2022-11-20T11:03:04.776Z,87.23
2022-11-20T11:05:31.141Z,87.50
2022-11-20T11:07:59.641Z,87.72
2022-11-20T11:10:37.096Z,87.49
2022-11-20T11:13:03.516Z,87.55
2022-11-20T11:15:31.125Z,87.33
2022-11-20T11:17:57.797Z,87.57
2022-11-20T11:20:26.751Z,87.79
2022-11-20T11:22:59.057Z,87.78
2022-11-20T11:25:27.299Z,87.61
2022-11-20T11:27:57.079Z,87.73
2022-11-20T11:30:25.278Z,87.86
2022-11-20T11:32:51.881Z,87.83
2022-11-20T11:35:22.845Z,87.86
2022-11-20T11:37:50.057Z,88.13
2022-11-20T11:40:26.191Z,87.86
2022-11-20T11:43:02.161Z,88.04
2022-11-20T11:45:31.682Z,88.26
2022-11-20T11:48:04.580Z,88.62
2022-11-20T11:50:32.598Z,88.63
2022-11-20T11:53:13.082Z,89.10
2022-11-20T11:56:04.939Z,89.26
2022-11-20T11:58:52.942Z,89.30
2022-11-20T12:01:35.103Z,89.56
2022-11-20T12:04:13.891Z,89.76
2022-11-20T12:06:45.100Z,90.04
2022-11-20T12:09:12.265Z,90.05
2022-11-20T12:11:52.104Z,90.22
2022-11-20T12:14:25.115Z,90.20
2022-11-20T12:16:54.194Z,90.69
2022-11-20T12:19:21.283Z,90.67
2022-11-20T12:21:58.483Z,90.57
2022-11-20T12:24:54.407Z,90.85
2022-11-20T12:27:36.685Z,91.16
2022-11-20T12:30:09.711Z,90.94
2022-11-20T12:32:43.863Z,90.81
2022-11-20T12:35:30.325Z,91.36
2022-11-20T12:38:30.727Z,91.38
2022-11-20T12:41:12.426Z,91.49
2022-11-20T12:44:21.872Z,91.41
2022-11-20T12:46:59.105Z,91.70
2022-11-20T12:49:39.010Z,91.73
2022-11-20T12:52:17.704Z,91.82
2022-11-20T12:54:57.796Z,92.25
2022-11-20T12:57:57.435Z,92.16
2022-11-20T13:00:25.921Z,92.22
2022-11-20T13:03:22.984Z,92.44
2022-11-20T13:06:07.576Z,92.57
2022-11-20T13:08:37.711Z,92.62
2022-11-20T13:11:19.104Z,92.74
2022-11-20T13:14:04.487Z,92.95
2022-11-20T13:17:03.347Z,93.04
2022-11-20T13:19:33.267Z,93.20
2022-11-20T13:21:59.903Z,93.18
2022-11-20T13:24:31.237Z,93.37
2022-11-20T13:27:08.496Z,93.33
2022-11-20T13:29:37.225Z,93.72
2022-11-20T13:32:08.372Z,93.51
2022-11-20T13:34:37.000Z,93.75
2022-11-20T13:37:04.915Z,93.44
2022-11-20T13:39:34.111Z,93.40
2022-11-20T13:42:24.546Z,93.93
2022-11-20T13:45:04.096Z,93.75
2022-11-20T13:47:30.800Z,93.60
2022-11-20T13:50:00.388Z,93.65
2022-11-20T13:52:36.110Z,93.83
2022-11-20T13:55:08.754Z,93.85
2022-11-20T13:57:53.348Z,93.90
2022-11-20T14:00:22.625Z,93.90
2022-11-20T14:03:07.264Z,94.02
2022-11-20T14:05:49.490Z,94.35
2022-11-20T14:08:29.266Z,94.09
2022-11-20T14:11:28.140Z,94.49
2022-11-20T14:13:59.708Z,94.49
2022-11-20T14:16:31.341Z,94.61
2022-11-20T14:18:59.492Z,94.50
2022-11-20T14:21:28.749Z,94.54
2022-11-20T14:24:18.883Z,94.69
2022-11-20T14:26:54.728Z,94.65
2022-11-20T14:29:36.815Z,94.83
2022-11-20T14:32:04.708Z,94.99
2022-11-20T14:34:33.806Z,94.84
2022-11-20T14:37:04.421Z,95.06
2022-11-20T14:39:36.894Z,95.01
2022-11-20T14:42:17.912Z,95.06
2022-11-20T14:44:47.542Z,95.27
2022-11-20T14:47:25.631Z,95.28
2022-11-20T14:49:56.773Z,95.23
2022-11-20T14:52:32.410Z,95.56
2022-11-20T14:55:02.997Z,95.40
2022-11-20T14:57:29.911Z,95.55
2022-11-20T15:00:25.702Z,95.58
2022-11-20T15:02:53.318Z,95.71
2022-11-20T15:05:52.135Z,95.66
2022-11-20T15:08:34.603Z,95.83
2022-11-20T15:11:18.447Z,95.75
2022-11-20T15:13:48.437Z,95.81
2022-11-20T15:16:20.737Z,96.19
2022-11-20T15:18:48.443Z,96.47
2022-11-20T15:21:17.422Z,96.30
2022-11-20T15:23:44.540Z,96.50
2022-11-20T15:26:19.677Z,96.37
2022-11-20T15:28:48.772Z,96.89
2022-11-20T15:31:18.708Z,96.97
2022-11-20T15:33:45.603Z,96.80
2022-11-20T15:36:11.981Z,97.19
2022-11-20T15:38:38.374Z,97.23
2022-11-20T15:41:05.596Z,97.29
2022-11-20T15:43:32.344Z,97.30
2022-11-20T15:46:07.298Z,97.63
2022-11-20T15:48:46.216Z,97.32
2022-11-20T15:51:22.837Z,97.51
2022-11-20T15:53:49.417Z,97.56
2022-11-20T15:56:15.985Z,97.50
2022-11-20T15:58:42.964Z,97.35
2022-11-20T16:01:15.053Z,97.58
2022-11-20T16:03:42.263Z,97.80
2022-11-20T16:06:08.972Z,97.47
2022-11-20T16:08:35.447Z,97.71
2022-11-20T16:11:02.479Z,97.73
2022-11-20T16:13:47.238Z,97.93
2022-11-20T16:16:38.651Z,97.80
2022-11-20T16:19:05.203Z,97.74
2022-11-20T16:21:32.054Z,97.89
2022-11-20T16:24:05.017Z,98.22
2022-11-20T16:26:32.224Z,97.92
2022-11-20T16:29:08.487Z,98.16
2022-11-20T16:31:35.046Z,98.10
2022-11-20T16:34:10.031Z,98.04
2022-11-20T16:36:40.937Z,98.16
2022-11-20T16:39:07.370Z,98.23
2022-11-20T16:41:35.071Z,98.31
2022-11-20T16:44:03.501Z,98.33
2022-11-20T16:46:32.195Z,98.35
2022-11-20T16:49:04.975Z,98.27
2022-11-20T16:51:34.915Z,98.71
2022-11-20T16:54:06.281Z,98.53
2022-11-20T16:56:32.838Z,98.85
2022-11-20T16:59:00.711Z,98.66
2022-11-20T17:01:28.848Z,98.26
2022-11-20T17:03:55.318Z,98.62
2022-11-20T17:06:24.343Z,98.63
2022-11-20T17:08:50.738Z,98.84
2022-11-20T17:11:19.595Z,98.73
2022-11-20T17:13:46.906Z,98.74
2022-11-20T17:16:16.456Z,98.91
2022-11-20T17:18:44.349Z,98.68
2022-11-20T17:21:11.754Z,99.03
2022-11-20T17:23:40.513Z,98.89
2022-11-20T17:26:08.291Z,98.89
2022-11-20T17:28:35.824Z,99.27
2022-11-20T17:31:04.513Z,99.23
2022-11-20T17:33:30.990Z,99.06
2022-11-20T17:35:57.985Z,99.27
2022-11-20T17:38:24.811Z,99.20
2022-11-20T17:40:54.367Z,99.23
2022-11-20T17:43:20.802Z,99.20
2022-11-20T17:45:47.385Z,99.31
2022-11-20T17:48:14.143Z,99.34
2022-11-20T17:50:40.682Z,99.09
2022-11-20T17:53:07.585Z,99.30
2022-11-20T17:55:55.817Z,99.30
2022-11-20T17:58:22.651Z,99.37
2022-11-20T18:00:49.162Z,99.20
2022-11-20T18:03:15.767Z,99.26
2022-11-20T18:05:42.263Z,99.46
2022-11-20T18:08:08.950Z,99.08
2022-11-20T18:10:35.548Z,99.48
2022-11-20T18:13:02.006Z,99.34
2022-11-20T18:15:28.947Z,99.42
2022-11-20T18:17:56.760Z,99.22
2022-11-20T18:20:34.011Z,99.28
2022-11-20T18:23:03.124Z,99.11
2022-11-20T18:25:29.680Z,99.19
2022-11-20T18:27:56.554Z,99.05
2022-11-20T18:30:30.788Z,99.29
2022-11-20T18:33:00.492Z,99.15
2022-11-20T18:35:27.485Z,99.21
2022-11-20T18:37:54.594Z,99.18
2022-11-20T18:40:21.528Z,98.77
2022-11-20T18:43:06.864Z,99.32
2022-11-20T18:45:33.698Z,99.01
2022-11-20T18:48:00.518Z,99.26
2022-11-20T18:50:27.306Z,99.25
2022-11-20T18:52:54.239Z,99.07
2022-11-20T18:55:24.432Z,99.16
2022-11-20T18:57:51.364Z,99.05
2022-11-20T19:00:18.381Z,99.07
2022-11-20T19:02:51.436Z,98.85
2022-11-20T19:05:18.345Z,99.19
2022-11-20T19:07:45.257Z,98.90
2022-11-20T19:10:13.711Z,98.97
2022-11-20T19:12:40.480Z,98.97
2022-11-20T19:15:07.636Z,98.96
2022-11-20T19:17:34.648Z,99.09
2022-11-20T19:20:01.444Z,99.20
2022-11-20T19:22:28.276Z,99.06
2022-11-20T19:24:55.049Z,99.20
2022-11-20T19:27:21.953Z,99.09
2022-11-20T19:29:48.939Z,99.01
2022-11-20T19:32:16.507Z,99.27
2022-11-20T19:34:43.718Z,99.09
2022-11-20T19:37:10.641Z,98.93
2022-11-20T19:39:37.631Z,99.18
2022-11-20T19:42:04.424Z,98.81
2022-11-20T19:44:33.136Z,99.09
2022-11-20T19:47:00.599Z,99.01
2022-11-20T19:49:27.417Z,99.37
2022-11-20T19:51:54.200Z,99.20
2022-11-20T19:54:23.563Z,99.26
2022-11-20T19:56:50.803Z,99.02
2022-11-20T19:59:17.739Z,99.28
2022-11-20T20:01:44.803Z,99.25
2022-11-20T20:04:11.704Z,99.17
2022-11-20T20:06:40.221Z,99.29
2022-11-20T20:09:16.415Z,99.65
2022-11-20T20:11:46.773Z,99.20
2022-11-20T20:14:32.836Z,98.96
2022-11-20T20:17:20.062Z,99.24
2022-11-20T20:20:07.051Z,99.20
2022-11-20T20:23:15.502Z,99.17
2022-11-20T20:33:30.247Z,99.05
2022-11-20T20:36:02.812Z,98.74
